Time;durP1;ratioP1;P1;durP2;ratioP2;P2;SDS_P1;SDS_P2;PMS_P1;PMS_P2;Temp;Humidity;BMP_temperature;BMP_pressure;BME280_temperature;BME280_humidity;BME280_pressure;Samples;Min_cycle;Max_cycle;Signal;HPM_P1;HPM_P2
2023/01/06 00:00:14;;;;;;;2.13;1.92;;;11.20;86.20;;;;;;4985662;28;20129;-60
2023/01/06 00:02:40;;;;;;;3.55;2.10;;;11.20;86.20;;;;;;4981113;28;20334;-58
2023/01/06 00:05:06;;;;;;;1.98;1.80;;;11.20;86.40;;;;;;4977656;28;20319;-61
2023/01/06 00:07:31;;;;;;;2.45;2.25;;;11.10;86.30;;;;;;4986551;28;20041;-58
2023/01/06 00:09:57;;;;;;;2.45;2.17;;;11.10;86.40;;;;;;4981774;28;20034;-61
2023/01/06 00:12:25;;;;;;;2.17;1.98;;;11.10;86.50;;;;;;4978888;28;20542;-60
2023/01/06 00:14:51;;;;;;;2.90;2.20;;;11.10;86.60;;;;;;4976937;28;20395;-59
2023/01/06 00:17:17;;;;;;;2.13;2.03;;;11.00;86.60;;;;;;4984352;28;20049;-60
2023/01/06 00:19:42;;;;;;;2.95;2.50;;;11.00;86.70;;;;;;4984670;28;20193;-60
2023/01/06 00:22:08;;;;;;;3.00;2.47;;;11.00;86.70;;;;;;4961221;28;20041;-61
2023/01/06 00:24:33;;;;;;;2.65;2.45;;;11.00;86.70;;;;;;4982682;28;20031;-61
2023/01/06 00:27:00;;;;;;;2.83;2.63;;;11.00;86.70;;;;;;4979412;28;20077;-60
2023/01/06 00:29:26;;;;;;;3.85;3.10;;;10.90;86.60;;;;;;4982241;28;20156;-62
2023/01/06 00:31:51;;;;;;;3.35;3.05;;;10.90;86.70;;;;;;4976537;28;20038;-62
2023/01/06 00:34:17;;;;;;;3.72;3.42;;;10.90;86.90;;;;;;4985201;28;20520;-61
2023/01/06 00:36:43;;;;;;;5.03;3.78;;;10.90;87.00;;;;;;4985403;28;20049;-61
2023/01/06 00:39:12;;;;;;;4.47;4.07;;;10.90;87.30;;;;;;4983514;28;20229;-62
2023/01/06 00:44:22;;;;;;;;;;;10.80;87.30;;;;;;4985671;28;20088;-61
2023/01/06 00:46:48;;;;;;;5.22;3.78;;;10.90;87.90;;;;;;4984708;28;19921;-61
2023/01/06 00:49:14;;;;;;;4.70;4.15;;;10.80;87.10;;;;;;4985566;28;20185;-62
2023/01/06 00:51:39;;;;;;;4.68;4.30;;;10.80;87.30;;;;;;4983584;28;20049;-61
2023/01/06 00:54:10;;;;;;;4.22;3.88;;;10.80;87.40;;;;;;4985833;28;20561;-61
2023/01/06 00:56:37;;;;;;;4.80;4.25;;;10.80;87.60;;;;;;4984132;28;20391;-61
2023/01/06 00:59:03;;;;;;;4.30;4.00;;;10.80;87.60;;;;;;4982407;28;20121;-59
2023/01/06 01:01:29;;;;;;;4.75;4.10;;;10.80;87.60;;;;;;4981684;28;20514;-59
2023/01/06 01:03:54;;;;;;;4.20;3.90;;;10.90;87.80;;;;;;4982026;28;20034;-60
2023/01/06 01:06:20;;;;;;;3.72;3.42;;;10.90;87.70;;;;;;4977798;28;20035;-60
2023/01/06 01:08:45;;;;;;;4.07;3.67;;;10.90;87.60;;;;;;4980172;28;20525;-59
2023/01/06 01:12:08;;;;;;;4.05;3.65;;;10.90;87.60;;;;;;4982025;28;20046;-59
2023/01/06 01:14:00;;;;;;;3.53;3.22;;;10.90;87.50;;;;;;4981201;28;20043;-61
2023/01/06 01:16:26;;;;;;;3.47;3.17;;;10.90;87.40;;;;;;4978270;28;20038;-62
2023/01/06 01:18:51;;;;;;;3.65;3.35;;;10.90;87.40;;;;;;4984565;28;20057;-61
2023/01/06 01:21:17;;;;;;;5.57;3.90;;;10.90;87.40;;;;;;4982414;28;20034;-59
2023/01/06 01:23:43;;;;;;;4.13;3.72;;;10.90;87.30;;;;;;4980616;28;20089;-59
2023/01/06 01:26:08;;;;;;;4.40;3.67;;;10.90;87.20;;;;;;4981397;28;20034;-60
2023/01/06 01:28:34;;;;;;;3.88;3.58;;;11.10;87.30;;;;;;4983029;28;20130;-60
2023/01/06 01:31:01;;;;;;;4.47;4.07;;;10.90;87.10;;;;;;4982714;28;20030;-61
2023/01/06 01:33:28;;;;;;;6.68;5.05;;;10.90;87.10;;;;;;4987937;28;20070;-59
2023/01/06 01:35:54;;;;;;;6.95;5.35;;;10.90;87.00;;;;;;4969045;28;20034;-61
2023/01/06 01:38:20;;;;;;;5.85;5.25;;;10.90;87.00;;;;;;4987697;28;20038;-61
2023/01/06 01:40:49;;;;;;;5.15;4.70;;;10.80;86.90;;;;;;4987797;28;20035;-60
2023/01/06 01:43:15;;;;;;;5.45;4.95;;;10.80;87.10;;;;;;4986334;28;20053;-62
2023/01/06 01:45:44;;;;;;;7.80;5.45;;;10.80;87.20;;;;;;4986959;28;20042;-61
2023/01/06 01:48:34;;;;;;;7.15;5.65;;;10.80;87.30;;;;;;4986924;28;20158;-61
2023/01/06 01:51:03;;;;;;;6.05;5.45;;;10.70;87.60;;;;;;4988195;28;20130;-59
2023/01/06 01:53:32;;;;;;;6.00;5.30;;;10.70;87.30;;;;;;4988276;28;20042;-60
2023/01/06 01:56:02;;;;;;;5.47;4.97;;;10.70;87.30;;;;;;4988028;28;20561;-59
2023/01/06 01:58:42;;;;;;;5.50;5.00;;;10.60;87.10;;;;;;4982430;28;20530;-61
2023/01/06 02:01:09;;;;;;;5.35;4.88;;;10.60;87.00;;;;;;4982350;28;20138;-60
2023/01/06 02:03:36;;;;;;;5.40;4.93;;;10.60;86.90;;;;;;4987286;28;20030;-59
2023/01/06 02:06:05;;;;;;;6.35;5.00;;;10.60;86.90;;;;;;4985283;28;20038;-61
2023/01/06 02:08:42;;;;;;;5.70;5.10;;;10.60;86.70;;;;;;4983275;28;20602;-61
2023/01/06 02:11:08;;;;;;;5.82;5.22;;;10.50;86.20;;;;;;4976432;28;20124;-61
2023/01/06 02:13:37;;;;;;;5.28;4.82;;;10.50;86.10;;;;;;4982850;28;20038;-60
2023/01/06 02:16:18;;;;;;;5.20;4.57;;;10.50;86.00;;;;;;4981406;28;20121;-60
2023/01/06 02:18:50;;;;;;;5.30;4.70;;;10.40;85.70;;;;;;4983545;28;20061;-61
2023/01/06 02:21:34;;;;;;;5.20;4.68;;;10.40;85.80;;;;;;4982796;28;20092;-60
2023/01/06 02:24:24;;;;;;;5.50;5.00;;;10.30;85.50;;;;;;4983344;28;20307;-59
2023/01/06 02:27:11;;;;;;;6.20;4.57;;;10.30;85.00;;;;;;4984141;28;20038;-58
2023/01/06 02:30:04;;;;;;;5.13;4.63;;;10.20;85.00;;;;;;4983370;28;20121;-61
2023/01/06 02:32:35;;;;;;;5.35;4.85;;;10.10;84.70;;;;;;4984186;28;20034;-62
2023/01/06 02:35:24;;;;;;;5.45;4.95;;;10.10;84.80;;;;;;4986434;28;20031;-61
2023/01/06 02:38:05;;;;;;;6.00;5.40;;;10.10;84.30;;;;;;4988525;28;20038;-62
2023/01/06 02:40:55;;;;;;;5.43;4.85;;;10.00;84.30;;;;;;4986932;28;20041;-62
2023/01/06 02:43:50;;;;;;;5.43;4.93;;;9.90;83.90;;;;;;4986603;28;20596;-62
2023/01/06 02:46:27;;;;;;;5.82;5.22;;;9.90;84.20;;;;;;4983044;28;20128;-62
2023/01/06 02:49:10;;;;;;;5.38;4.88;;;9.80;85.10;;;;;;4983846;28;20038;-61
2023/01/06 02:51:43;;;;;;;6.07;5.47;;;9.70;83.90;;;;;;4986990;28;20050;-61
2023/01/06 02:54:24;;;;;;;5.00;4.50;;;9.70;84.10;;;;;;4985728;28;20395;-62
2023/01/06 02:56:59;;;;;;;5.57;4.93;;;9.60;84.20;;;;;;4985943;28;20793;-60
2023/01/06 02:59:32;;;;;;;5.13;4.63;;;9.60;84.40;;;;;;4984611;28;20461;-62
2023/01/06 03:01:59;;;;;;;5.28;4.55;;;9.50;84.30;;;;;;4982407;28;20040;-60
2023/01/06 03:04:39;;;;;;;5.78;4.88;;;9.50;84.20;;;;;;4983990;28;20093;-61
2023/01/06 03:07:06;;;;;;;5.28;4.78;;;9.40;83.70;;;;;;4979778;28;20140;-62
2023/01/06 03:09:37;;;;;;;4.95;4.53;;;9.40;83.80;;;;;;4985549;28;20401;-62
2023/01/06 03:12:09;;;;;;;5.70;5.20;;;9.30;83.80;;;;;;4980786;28;20398;-59
2023/01/06 03:14:40;;;;;;;5.85;5.10;;;9.20;83.80;;;;;;4980649;28;20034;-62
2023/01/06 03:17:06;;;;;;;6.10;5.50;;;9.20;83.80;;;;;;4981429;28;20038;-60
2023/01/06 03:19:32;;;;;;;7.28;5.85;;;9.10;83.90;;;;;;4981512;28;20196;-58
2023/01/06 03:21:59;;;;;;;6.05;5.40;;;9.00;84.00;;;;;;4984699;28;20451;-61
2023/01/06 03:24:25;;;;;;;8.05;5.93;;;9.00;84.10;;;;;;4983582;28;20061;-61
2023/01/06 03:26:52;;;;;;;6.15;5.55;;;8.90;84.40;;;;;;4984216;28;20030;-59
2023/01/06 03:29:19;;;;;;;6.38;5.57;;;8.90;84.50;;;;;;4981832;28;20470;-60
2023/01/06 03:31:59;;;;;;;7.57;6.53;;;8.90;84.40;;;;;;4980041;28;20058;-61
2023/01/06 03:34:49;;;;;;;6.70;6.05;;;8.80;84.50;;;;;;4983820;28;20050;-60
2023/01/06 03:37:26;;;;;;;7.38;6.13;;;8.80;84.60;;;;;;4986318;28;20045;-60
2023/01/06 03:40:09;;;;;;;7.68;6.10;;;8.70;84.70;;;;;;4986542;28;20038;-61
2023/01/06 03:43:21;;;;;;;6.95;5.88;;;8.70;84.90;;;;;;4985441;28;20057;-62
2023/01/06 03:45:38;;;;;;;7.05;6.15;;;8.70;85.00;;;;;;4973542;28;20085;-61
2023/01/06 03:48:19;;;;;;;5.85;5.25;;;8.60;85.20;;;;;;4987616;28;20038;-60
2023/01/06 03:51:02;;;;;;;7.90;6.32;;;8.60;85.50;;;;;;4985446;28;20170;-58
2023/01/06 03:53:53;;;;;;;7.38;5.60;;;8.60;85.70;;;;;;4984773;28;20045;-59
2023/01/06 03:56:28;;;;;;;7.18;5.93;;;8.60;86.00;;;;;;4986037;28;20030;-60
2023/01/06 03:58:56;;;;;;;;;;;8.60;86.10;;;;;;4983232;28;20109;-58
2023/01/06 04:01:25;;;;;;;7.25;5.45;;;8.60;86.40;;;;;;4980800;28;19950;-60
2023/01/06 04:03:52;;;;;;;6.78;5.80;;;8.60;86.00;;;;;;4982942;28;20038;-60
2023/01/06 04:06:18;;;;;;;6.25;5.63;;;8.70;86.40;;;;;;4979457;28;20127;-58
2023/01/06 04:08:44;;;;;;;6.57;5.78;;;8.60;86.60;;;;;;4982408;28;20564;-56
2023/01/06 04:12:37;;;;;;;7.47;5.90;;;8.70;86.60;;;;;;4978648;28;20394;-61
2023/01/06 04:13:55;;;;;;;6.22;5.57;;;8.60;86.60;;;;;;4980502;28;20042;-61
2023/01/06 04:16:21;;;;;;;6.43;5.70;;;8.70;86.70;;;;;;4981936;28;20042;-59
2023/01/06 04:18:47;;;;;;;7.35;6.55;;;8.70;86.80;;;;;;4982364;28;20047;-59
2023/01/06 04:21:12;;;;;;;7.38;6.00;;;8.70;86.90;;;;;;4983717;28;20620;-61
2023/01/06 04:23:38;;;;;;;6.30;5.70;;;8.80;87.80;;;;;;4981434;28;20379;-59
2023/01/06 04:26:04;;;;;;;6.90;6.18;;;8.80;87.10;;;;;;4981347;28;20066;-60
2023/01/06 04:28:29;;;;;;;7.00;6.30;;;8.80;87.20;;;;;;4982071;28;20027;-61
2023/01/06 04:30:59;;;;;;;9.00;6.60;;;8.80;87.30;;;;;;4979040;28;20409;-61
2023/01/06 04:33:25;;;;;;;7.10;6.20;;;8.80;87.70;;;;;;4981229;28;20030;-62
2023/01/06 04:35:50;;;;;;;7.10;6.40;;;8.80;87.60;;;;;;4979830;28;20031;-62
2023/01/06 04:38:16;;;;;;;6.97;6.28;;;8.80;87.80;;;;;;4981344;28;20073;-63
2023/01/06 04:40:42;;;;;;;10.02;6.35;;;8.90;88.00;;;;;;4981872;28;20035;-61
2023/01/06 04:43:12;;;;;;;7.90;6.50;;;8.90;88.00;;;;;;4982874;28;20058;-61
2023/01/06 04:45:39;;;;;;;7.57;6.63;;;8.90;88.10;;;;;;4981462;28;20387;-62
2023/01/06 04:48:05;;;;;;;9.10;6.95;;;9.00;88.20;;;;;;4981284;28;20038;-62
2023/01/06 04:50:31;;;;;;;9.27;6.90;;;9.00;88.40;;;;;;4981344;28;20033;-63
2023/01/06 04:52:57;;;;;;;8.77;6.72;;;9.00;88.50;;;;;;4978923;28;20048;-59
2023/01/06 04:55:23;;;;;;;8.65;6.93;;;9.00;88.50;;;;;;4981723;28;20034;-59
2023/01/06 04:57:49;;;;;;;8.27;7.10;;;9.10;88.50;;;;;;4981793;28;20039;-59
2023/01/06 05:00:15;;;;;;;10.85;7.72;;;9.10;88.60;;;;;;4982765;28;20042;-59
2023/01/06 05:02:41;;;;;;;8.27;7.00;;;9.10;88.70;;;;;;4960832;28;20379;-59
2023/01/06 05:05:06;;;;;;;9.95;7.70;;;9.10;89.00;;;;;;4979266;28;20034;-59
2023/01/06 05:07:32;;;;;;;10.02;7.00;;;9.20;89.30;;;;;;4978993;28;20034;-59
2023/01/06 05:09:58;;;;;;;10.02;6.93;;;9.20;89.40;;;;;;4980540;28;20089;-60
2023/01/06 05:12:23;;;;;;;8.13;6.40;;;9.20;89.70;;;;;;4979048;28;20038;-60
2023/01/06 05:14:49;;;;;;;8.65;7.00;;;9.20;89.70;;;;;;4983341;28;20038;-59
2023/01/06 05:17:14;;;;;;;9.85;7.00;;;9.30;89.90;;;;;;4982473;28;20408;-60
2023/01/06 05:19:41;;;;;;;10.25;7.00;;;9.30;89.90;;;;;;4983031;28;20034;-60
2023/01/06 05:22:07;;;;;;;10.43;7.32;;;9.40;89.90;;;;;;4981247;28;20053;-61
2023/01/06 05:24:33;;;;;;;8.82;7.00;;;9.40;89.90;;;;;;4980589;28;20427;-62
2023/01/06 05:26:58;;;;;;;10.35;6.47;;;9.40;89.70;;;;;;4985855;28;20038;-61
2023/01/06 05:29:24;;;;;;;7.65;6.65;;;9.40;89.70;;;;;;4985011;28;20462;-60
2023/01/06 05:31:50;;;;;;;8.38;6.60;;;9.50;89.70;;;;;;4983149;28;20354;-59
2023/01/06 05:34:15;;;;;;;35.72;19.05;;;9.50;89.70;;;;;;4984203;28;20045;-61
2023/01/06 05:36:41;;;;;;;12.88;9.23;;;9.50;89.60;;;;;;4981116;28;20042;-61
2023/01/06 05:39:06;;;;;;;20.00;9.25;;;9.50;89.50;;;;;;4980159;28;20497;-61
2023/01/06 05:41:32;;;;;;;12.25;8.80;;;9.60;89.60;;;;;;4981316;28;20457;-62
2023/01/06 05:43:57;;;;;;;9.40;7.35;;;9.60;89.50;;;;;;4982755;28;20038;-59
2023/01/06 05:46:23;;;;;;;8.38;6.88;;;9.60;89.50;;;;;;4981787;28;20042;-62
2023/01/06 05:48:49;;;;;;;10.48;8.05;;;9.60;89.70;;;;;;4978452;28;20503;-60
2023/01/06 05:51:15;;;;;;;9.88;7.68;;;9.60;89.80;;;;;;4981015;28;20116;-60
2023/01/06 05:53:43;;;;;;;10.63;8.32;;;9.60;89.80;;;;;;4980991;28;20530;-61
2023/01/06 05:56:12;;;;;;;9.82;7.32;;;9.60;89.70;;;;;;4981693;28;20590;-59
2023/01/06 05:58:41;;;;;;;10.77;8.23;;;9.60;89.70;;;;;;4980479;28;20039;-60
2023/01/06 06:01:20;;;;;;;10.68;7.57;;;9.60;89.60;;;;;;4980802;28;20042;-59
2023/01/06 06:03:46;;;;;;;10.40;7.32;;;9.60;89.90;;;;;;4984020;28;20143;-61
2023/01/06 06:06:11;;;;;;;8.88;6.97;;;9.60;89.60;;;;;;4981977;28;20030;-59
2023/01/06 06:08:37;;;;;;;8.35;6.80;;;9.60;89.70;;;;;;4981048;28;20482;-60
2023/01/06 06:11:08;;;;;;;8.77;6.63;;;9.60;89.70;;;;;;4978777;28;20043;-61
2023/01/06 06:13:34;;;;;;;10.05;6.78;;;9.60;89.90;;;;;;4980165;28;20498;-59
2023/01/06 06:16:04;;;;;;;9.90;7.30;;;9.60;89.90;;;;;;4982987;28;20045;-60
2023/01/06 06:18:29;;;;;;;11.15;7.85;;;9.60;90.00;;;;;;4982938;28;22573;-60
2023/01/06 06:21:02;;;;;;;11.60;8.50;;;9.50;89.90;;;;;;4982478;28;20034;-59
2023/01/06 06:23:29;;;;;;;9.38;7.32;;;9.50;90.00;;;;;;4986993;28;20026;-62
2023/01/06 06:25:55;;;;;;;12.98;7.40;;;9.50;90.00;;;;;;4981204;28;20045;-61
2023/01/06 06:28:21;;;;;;;11.18;7.70;;;9.50;90.00;;;;;;4981064;28;20565;-59
2023/01/06 06:30:46;;;;;;;12.00;8.55;;;9.60;90.10;;;;;;4982894;28;20061;-62
2023/01/06 06:33:12;;;;;;;8.40;6.47;;;9.50;90.00;;;;;;4987280;28;20034;-62
2023/01/06 06:35:37;;;;;;;10.85;7.78;;;9.50;90.00;;;;;;4985917;28;20474;-61
2023/01/06 06:38:03;;;;;;;10.85;7.88;;;9.50;90.10;;;;;;4986140;28;20338;-62
2023/01/06 06:40:28;;;;;;;12.50;8.23;;;9.50;90.10;;;;;;4986479;28;20042;-62
2023/01/06 06:42:54;;;;;;;10.43;8.02;;;9.50;90.10;;;;;;4987095;28;20053;-61
2023/01/06 06:45:19;;;;;;;12.18;8.43;;;9.50;90.10;;;;;;4982199;28;20034;-60
2023/01/06 06:47:45;;;;;;;11.30;8.20;;;9.50;90.20;;;;;;4984271;28;20030;-60
2023/01/06 06:50:12;;;;;;;14.48;8.27;;;9.50;90.20;;;;;;4981128;28;20117;-60
2023/01/06 06:52:37;;;;;;;18.20;8.45;;;9.50;90.10;;;;;;4982787;28;20136;-61
2023/01/06 06:55:04;;;;;;;13.88;8.68;;;9.50;90.20;;;;;;4984734;28;20778;-61
2023/01/06 06:57:29;;;;;;;15.23;8.23;;;9.40;90.10;;;;;;4987230;28;20035;-62
2023/01/06 06:59:55;;;;;;;12.65;8.15;;;9.40;90.20;;;;;;4985115;28;20038;-61
2023/01/06 07:02:20;;;;;;;12.02;7.85;;;9.40;90.20;;;;;;4986101;28;20049;-61
2023/01/06 07:04:46;;;;;;;10.10;7.25;;;9.30;90.10;;;;;;4984214;28;20498;-61
2023/01/06 07:07:11;;;;;;;11.02;7.55;;;9.30;90.10;;;;;;4982569;28;20035;-59
2023/01/06 07:09:37;;;;;;;10.95;8.07;;;9.30;90.20;;;;;;4981598;28;20045;-60
2023/01/06 07:12:03;;;;;;;10.52;7.75;;;9.20;90.20;;;;;;4977549;28;20046;-60
2023/01/06 07:14:28;;;;;;;10.57;7.45;;;9.20;90.30;;;;;;4982853;28;20038;-61
2023/01/06 07:16:54;;;;;;;10.02;6.95;;;9.20;90.30;;;;;;4984308;28;20338;-61
2023/01/06 07:19:19;;;;;;;8.02;6.35;;;9.10;90.40;;;;;;4981216;28;20092;-61
2023/01/06 07:21:45;;;;;;;8.10;6.28;;;9.10;90.40;;;;;;4982025;28;20047;-62
2023/01/06 07:24:11;;;;;;;9.57;6.72;;;9.20;90.40;;;;;;4983364;28;20110;-61
2023/01/06 07:26:36;;;;;;;8.88;6.88;;;9.10;90.40;;;;;;4983413;28;20081;-60
2023/01/06 07:29:02;;;;;;;10.27;7.47;;;9.10;90.50;;;;;;4982423;28;20108;-59
2023/01/06 07:31:27;;;;;;;11.75;7.93;;;9.10;90.40;;;;;;4978912;28;20034;-61
2023/01/06 07:33:53;;;;;;;10.35;7.45;;;9.10;90.20;;;;;;4984480;28;20049;-60
2023/01/06 07:36:18;;;;;;;10.68;7.80;;;9.10;90.20;;;;;;4986053;28;20034;-59
2023/01/06 07:38:44;;;;;;;10.05;7.30;;;9.10;90.20;;;;;;4985905;28;20049;-58
2023/01/06 07:41:09;;;;;;;11.38;8.13;;;9.00;90.10;;;;;;4986740;28;20116;-61
2023/01/06 07:43:35;;;;;;;12.27;8.82;;;9.00;90.20;;;;;;4982549;28;20061;-59
2023/01/06 07:46:00;;;;;;;10.63;7.53;;;8.90;90.20;;;;;;4979823;28;20065;-60
2023/01/06 07:48:26;;;;;;;9.68;7.13;;;8.90;90.30;;;;;;4979546;28;20027;-59
2023/01/06 07:50:52;;;;;;;10.20;7.20;;;8.90;90.40;;;;;;4982022;28;20050;-58
2023/01/06 07:53:17;;;;;;;8.20;6.28;;;8.90;90.40;;;;;;4980729;28;20043;-57
2023/01/06 07:55:50;;;;;;;10.13;7.00;;;8.90;90.40;;;;;;4985677;28;20039;-60
2023/01/06 07:58:17;;;;;;;9.45;6.68;;;8.90;90.50;;;;;;4984418;28;20437;-58
2023/01/06 08:00:43;;;;;;;9.13;7.10;;;8.90;90.40;;;;;;4982813;28;20049;-58
2023/01/06 08:03:10;;;;;;;9.25;7.22;;;8.90;90.50;;;;;;4985215;28;20034;-61
2023/01/06 08:05:37;;;;;;;11.52;8.50;;;8.90;90.50;;;;;;4985329;28;20039;-58
2023/01/06 08:08:03;;;;;;;9.32;7.07;;;8.90;90.50;;;;;;4984677;28;20040;-61
2023/01/06 08:10:29;;;;;;;10.10;7.88;;;9.00;90.60;;;;;;4982617;28;20392;-61
2023/01/06 08:12:54;;;;;;;8.30;6.85;;;9.00;90.60;;;;;;4983872;28;20060;-60
2023/01/06 08:15:20;;;;;;;9.25;7.15;;;9.00;90.50;;;;;;4986681;28;20038;-57
2023/01/06 08:17:45;;;;;;;9.05;6.63;;;9.00;90.60;;;;;;4986160;28;20034;-58
2023/01/06 08:20:11;;;;;;;10.65;8.02;;;9.00;90.60;;;;;;4986403;28;20046;-58
2023/01/06 08:22:37;;;;;;;9.13;6.80;;;9.00;90.60;;;;;;4982485;28;20109;-59
2023/01/06 08:25:02;;;;;;;11.52;9.23;;;9.00;90.60;;;;;;4983860;28;20038;-61
2023/01/06 08:27:28;;;;;;;9.88;7.43;;;9.00;90.70;;;;;;4985155;28;20062;-61
2023/01/06 08:29:54;;;;;;;8.48;6.78;;;9.00;90.70;;;;;;4983484;28;20450;-62
2023/01/06 08:32:20;;;;;;;7.63;5.90;;;9.10;90.80;;;;;;4985611;28;20034;-62
2023/01/06 08:34:45;;;;;;;8.20;6.15;;;9.10;90.80;;;;;;4985455;28;20525;-62
2023/01/06 08:37:11;;;;;;;9.80;6.22;;;9.10;90.80;;;;;;4984731;28;20044;-61
2023/01/06 08:39:37;;;;;;;9.07;6.70;;;9.10;90.80;;;;;;4985910;28;20040;-61
2023/01/06 08:42:02;;;;;;;9.45;7.63;;;9.10;90.80;;;;;;4983372;28;20034;-62
2023/01/06 08:44:28;;;;;;;10.65;8.40;;;9.20;90.80;;;;;;4985470;28;20109;-60
2023/01/06 08:46:54;;;;;;;7.90;5.82;;;9.20;90.80;;;;;;4984364;28;20516;-61
2023/01/06 08:49:19;;;;;;;9.43;7.00;;;9.20;90.80;;;;;;4984337;28;20042;-60
2023/01/06 08:51:45;;;;;;;7.43;5.63;;;9.30;90.80;;;;;;4985953;28;20113;-61
2023/01/06 08:54:10;;;;;;;7.20;5.68;;;9.30;90.80;;;;;;4985838;28;20119;-59
2023/01/06 08:56:38;;;;;;;7.63;5.70;;;9.30;90.70;;;;;;4983819;28;20026;-59
2023/01/06 08:59:04;;;;;;;6.15;5.30;;;9.40;90.80;;;;;;4985046;28;20040;-60
2023/01/06 09:01:32;;;;;;;6.47;4.95;;;9.40;90.80;;;;;;4984992;28;20133;-60
2023/01/06 09:04:00;;;;;;;6.97;5.70;;;9.40;90.80;;;;;;4983679;28;20030;-60
2023/01/06 09:06:26;;;;;;;7.68;5.63;;;9.40;90.80;;;;;;4983823;28;20042;-60
2023/01/06 09:08:52;;;;;;;5.28;4.10;;;9.50;90.80;;;;;;4984854;28;20073;-60
2023/01/06 09:11:18;;;;;;;5.47;4.43;;;9.50;90.80;;;;;;4981191;28;20129;-61
2023/01/06 09:13:45;;;;;;;7.75;4.55;;;9.50;90.80;;;;;;4984745;28;20042;-60
2023/01/06 09:16:11;;;;;;;4.93;4.15;;;9.60;90.80;;;;;;4984688;28;20045;-60
2023/01/06 09:18:37;;;;;;;5.78;4.57;;;9.60;90.70;;;;;;4985050;28;20070;-61
2023/01/06 09:21:03;;;;;;;5.32;4.70;;;9.60;90.70;;;;;;4982174;28;20030;-58
2023/01/06 09:23:30;;;;;;;4.75;4.25;;;9.70;90.80;;;;;;4983157;28;20050;-58
2023/01/06 09:25:57;;;;;;;5.70;5.10;;;9.70;90.80;;;;;;4983504;28;20030;-59
2023/01/06 09:28:23;;;;;;;5.43;4.80;;;9.70;90.80;;;;;;4985810;28;20100;-61
2023/01/06 09:30:49;;;;;;;4.88;4.38;;;9.70;90.80;;;;;;4977454;28;20398;-61
2023/01/06 09:33:15;;;;;;;4.63;3.95;;;9.80;90.80;;;;;;4980671;28;20521;-61
2023/01/06 09:35:43;;;;;;;5.00;4.35;;;9.80;90.80;;;;;;4976594;28;20073;-61
2023/01/06 09:38:09;;;;;;;5.18;4.28;;;9.90;90.80;;;;;;4967395;28;20455;-61
2023/01/06 09:41:02;;;;;;;4.55;3.70;;;9.90;90.70;;;;;;4973944;28;20046;-61
2023/01/06 09:43:55;;;;;;;5.32;4.60;;;10.00;90.70;;;;;;4980253;28;20054;-61
2023/01/06 09:46:30;;;;;;;6.55;5.50;;;10.00;90.60;;;;;;4978097;28;20050;-63
2023/01/06 09:49:05;;;;;;;4.38;3.97;;;10.10;90.60;;;;;;4979600;28;20402;-61
2023/01/06 09:51:32;;;;;;;4.80;4.10;;;10.10;90.50;;;;;;4983295;28;20042;-62
2023/01/06 09:54:39;;;;;;;6.07;4.75;;;10.10;90.30;;;;;;4983812;28;20050;-61
2023/01/06 09:57:40;;;;;;;6.30;5.50;;;10.10;90.30;;;;;;4957300;28;20045;-60
2023/01/06 10:00:49;;;;;;;6.85;5.15;;;10.20;90.20;;;;;;4982564;28;20047;-61
2023/01/06 10:03:20;;;;;;;5.53;4.20;;;10.20;90.20;;;;;;4961958;28;20708;-60
2023/01/06 10:05:49;;;;;;;4.97;4.47;;;10.20;90.10;;;;;;4988145;28;20049;-61
2023/01/06 10:08:18;;;;;;;16.02;11.10;;;10.20;90.10;;;;;;4982575;28;20038;-61
2023/01/06 10:11:07;;;;;;;7.97;5.15;;;10.20;90.10;;;;;;4981105;28;20031;-60
2023/01/06 10:13:52;;;;;;;5.03;4.15;;;10.30;90.20;;;;;;4984325;28;20510;-61
2023/01/06 10:16:18;;;;;;;4.78;4.20;;;10.30;90.10;;;;;;4984655;28;20042;-61
2023/01/06 10:19:04;;;;;;;4.38;3.67;;;10.30;90.00;;;;;;4964360;28;20097;-62
2023/01/06 10:21:45;;;;;;;4.50;3.80;;;10.40;90.10;;;;;;4983697;28;20580;-61
2023/01/06 10:24:42;;;;;;;3.45;3.15;;;10.40;90.00;;;;;;4982091;28;20566;-59
2023/01/06 10:27:19;;;;;;;3.17;2.88;;;10.40;90.00;;;;;;4981093;28;20023;-62
2023/01/06 10:29:47;;;;;;;4.07;3.40;;;10.50;90.00;;;;;;4981938;28;20066;-61
2023/01/06 10:32:15;;;;;;;2.97;2.67;;;10.50;89.80;;;;;;4982197;28;20073;-62
2023/01/06 10:34:48;;;;;;;3.03;2.80;;;10.50;89.60;;;;;;4984617;28;20033;-61
2023/01/06 10:37:21;;;;;;;3.30;3.00;;;10.50;89.50;;;;;;4976766;28;20026;-61
2023/01/06 10:39:52;;;;;;;4.18;3.55;;;10.60;89.70;;;;;;4984445;28;20038;-62
2023/01/06 10:42:55;;;;;;;3.58;3.05;;;10.60;89.70;;;;;;4983857;28;20170;-60
2023/01/06 10:45:28;;;;;;;2.85;2.55;;;10.70;89.90;;;;;;4985956;28;20491;-62
2023/01/06 10:47:54;;;;;;;3.28;2.67;;;10.70;89.90;;;;;;4976883;28;20042;-61
2023/01/06 10:50:20;;;;;;;2.88;2.67;;;10.80;90.00;;;;;;4983153;28;20042;-59
2023/01/06 10:52:47;;;;;;;3.20;2.85;;;10.80;89.90;;;;;;4983964;28;20062;-61
2023/01/06 10:55:33;;;;;;;2.92;2.70;;;10.90;89.90;;;;;;4984205;28;20422;-61
2023/01/06 10:58:24;;;;;;;2.58;2.38;;;11.00;89.50;;;;;;4983694;28;20042;-61
2023/01/06 11:01:10;;;;;;;3.35;2.47;;;11.00;89.40;;;;;;4962196;28;20047;-59
2023/01/06 11:03:41;;;;;;;2.95;2.47;;;11.20;89.20;;;;;;4979312;28;20080;-58
2023/01/06 11:06:25;;;;;;;3.00;2.70;;;11.30;89.30;;;;;;4987449;28;20418;-61
2023/01/06 11:08:52;;;;;;;3.78;3.30;;;11.30;88.90;;;;;;4988783;28;20173;-61
2023/01/06 11:11:18;;;;;;;3.80;2.92;;;11.40;88.90;;;;;;4985937;28;20126;-61
2023/01/06 11:13:50;;;;;;;2.67;2.47;;;11.50;88.90;;;;;;4988900;28;20039;-60
2023/01/06 11:16:30;;;;;;;2.60;2.40;;;11.50;88.50;;;;;;4986721;28;20584;-61
2023/01/06 11:18:59;;;;;;;3.40;2.65;;;11.60;88.00;;;;;;4989058;28;20042;-61
2023/01/06 11:21:41;;;;;;;2.42;2.13;;;11.70;88.30;;;;;;4987645;28;20115;-61
2023/01/06 11:24:18;;;;;;;2.00;1.90;;;11.80;87.50;;;;;;4987716;28;20486;-62
2023/01/06 11:26:50;;;;;;;4.00;3.15;;;11.90;87.10;;;;;;4988193;28;20046;-59
2023/01/06 11:29:25;;;;;;;2.65;2.38;;;11.90;86.80;;;;;;4986529;28;20173;-59
2023/01/06 11:31:51;;;;;;;2.08;1.88;;;11.90;86.40;;;;;;4988241;28;20030;-59
2023/01/06 11:34:22;;;;;;;2.45;2.25;;;12.00;86.80;;;;;;4987677;28;20046;-59
2023/01/06 11:36:50;;;;;;;1.95;1.77;;;12.10;86.50;;;;;;4987945;28;20345;-61
2023/01/06 11:39:25;;;;;;;1.90;1.80;;;12.10;86.50;;;;;;4987658;28;20494;-59
2023/01/06 11:41:52;;;;;;;1.60;1.50;;;12.20;86.00;;;;;;4988177;28;20177;-59
2023/01/06 11:44:32;;;;;;;1.70;1.60;;;12.20;86.20;;;;;;4988295;28;20491;-59
2023/01/06 11:47:07;;;;;;;1.20;1.10;;;12.30;85.60;;;;;;4987033;28;20055;-59
2023/01/06 11:49:47;;;;;;;2.08;1.98;;;12.40;85.00;;;;;;4986745;28;20466;-60
2023/01/06 11:52:25;;;;;;;1.58;1.45;;;12.50;84.90;;;;;;4988066;28;20089;-59
2023/01/06 11:55:14;;;;;;;1.48;1.38;;;12.50;84.20;;;;;;4988726;28;20030;-59
2023/01/06 11:57:45;;;;;;;1.60;1.50;;;12.60;84.50;;;;;;4978178;28;20117;-60
2023/01/06 12:00:46;;;;;;;1.65;1.30;;;12.60;84.10;;;;;;4982845;28;20047;-61
2023/01/06 12:03:35;;;;;;;2.55;1.75;;;12.60;83.30;;;;;;4983986;28;20073;-61
2023/01/06 12:06:00;;;;;;;1.60;1.50;;;12.70;83.30;;;;;;4983888;28;20503;-61
2023/01/06 12:08:40;;;;;;;4.47;2.08;;;12.70;83.60;;;;;;4985128;28;20027;-56
2023/01/06 12:11:13;;;;;;;3.28;2.47;;;12.70;83.20;;;;;;4979984;28;20042;-58
2023/01/06 12:13:38;;;;;;;4.65;3.72;;;12.80;82.90;;;;;;4983680;28;20885;-61
2023/01/06 12:16:22;;;;;;;2.22;2.03;;;12.80;83.10;;;;;;4982508;28;20038;-59
2023/01/06 12:18:49;;;;;;;1.35;1.25;;;12.80;82.60;;;;;;4982445;28;20522;-61
2023/01/06 12:21:21;;;;;;;1.70;1.50;;;12.80;82.70;;;;;;4983731;28;20049;-60
2023/01/06 12:23:48;;;;;;;1.80;1.70;;;12.80;82.40;;;;;;4982550;28;20038;-61
2023/01/06 12:26:20;;;;;;;3.03;2.10;;;12.80;82.40;;;;;;4986117;28;20046;-62
2023/01/06 12:28:47;;;;;;;2.88;1.73;;;12.90;82.40;;;;;;4980961;28;20121;-61
2023/01/06 12:31:41;;;;;;;2.20;1.80;;;12.80;82.40;;;;;;4982108;28;20108;-62
2023/01/06 12:34:35;;;;;;;2.08;1.40;;;12.80;82.30;;;;;;4979994;28;20034;-62
2023/01/06 12:37:18;;;;;;;1.42;1.30;;;12.80;81.50;;;;;;4981257;28;20583;-62
2023/01/06 12:40:01;;;;;;;1.80;1.58;;;12.80;82.00;;;;;;4985062;28;20085;-62
2023/01/06 12:43:04;;;;;;;1.58;1.00;;;12.80;81.80;;;;;;4984153;28;20517;-61
2023/01/06 12:45:53;;;;;;;1.85;1.20;;;12.90;81.00;;;;;;4984238;28;20062;-58
2023/01/06 12:48:37;;;;;;;1.30;1.20;;;12.90;80.60;;;;;;4984770;28;20035;-59
2023/01/06 12:51:10;;;;;;;1.23;1.00;;;12.90;80.60;;;;;;4983733;28;20081;-62
2023/01/06 12:53:41;;;;;;;0.90;0.90;;;12.90;80.70;;;;;;4978812;28;20047;-62
2023/01/06 12:56:25;;;;;;;2.28;2.08;;;12.80;80.50;;;;;;4982549;28;20050;-59
2023/01/06 12:59:07;;;;;;;1.38;1.27;;;12.80;80.10;;;;;;4982184;28;20108;-59
2023/01/06 13:01:42;;;;;;;1.30;1.20;;;12.80;80.50;;;;;;4982587;28;20050;-59
2023/01/06 13:04:45;;;;;;;1.35;1.05;;;12.80;80.50;;;;;;4984949;28;20034;-59
2023/01/06 13:07:13;;;;;;;1.00;0.90;;;12.80;79.80;;;;;;4984331;28;20030;-61
2023/01/06 13:10:03;;;;;;;1.25;1.15;;;12.80;80.80;;;;;;4981218;28;20035;-59
2023/01/06 13:12:29;;;;;;;1.98;1.20;;;12.80;80.30;;;;;;4976895;28;20034;-60